Terminal Aerodrome Forecast
Issued by NWS

Current Version | Previous Version | Text Only | Print | Product List | Glossary Off
Versions: 1 2 3 4 5 6 7 8 9 10 11 12 13 14 15 16 17 18 19 20 21 22 23 24 25 26 27 28 29 30 31 32

003
FTUS41 KRNK 080520
TAFLWB
TAF
KLWB 080520Z 0806/0906 00000KT P6SM FEW060 SCT200
     FM080800 VRB03KT P6SM BKN080 BKN100
     FM081400 29007KT P6SM SCT090 BKN130
     FM081700 29011G22KT P6SM FEW200 SCT250
     FM090400 29012G20KT P6SM BKN020 BKN050=

USA.gov is the U.S. government's official web portal to all federal, state and local government web resources and services.